sensor_id;sensor_type;location;lat;lon;timestamp;pressure;altitude;pressure_sealevel;temperature;humidity
3590;BME280;1809;48.470;9.226;2024-02-21T00:01:52;66719.50;;;5.02;100.00
3590;BME280;1809;48.470;9.226;2024-02-21T00:04:17;67729.56;;;5.03;100.00
3590;BME280;1809;48.470;9.226;2024-02-21T00:06:42;67721.25;;;4.96;100.00
3590;BME280;1809;48.470;9.226;2024-02-21T00:09:07;68727.59;;;4.93;100.00
3590;BME280;1809;48.470;9.226;2024-02-21T00:11:34;70749.00;;;4.95;100.00
3590;BME280;1809;48.470;9.226;2024-02-21T00:14:00;72433.75;;;4.96;100.00
3590;BME280;1809;48.470;9.226;2024-02-21T00:16:25;74465.50;;;5.05;100.00
3590;BME280;1809;48.470;9.226;2024-02-21T00:18:51;74811.75;;;5.12;100.00
3590;BME280;1809;48.470;9.226;2024-02-21T00:21:16;74813.59;;;5.14;100.00
3590;BME280;1809;48.470;9.226;2024-02-21T00:23:44;74144.88;;;5.18;100.00
3590;BME280;1809;48.470;9.226;2024-02-21T00:26:14;72456.28;;;5.15;100.00
3590;BME280;1809;48.470;9.226;2024-02-21T00:28:39;72457.47;;;5.16;100.00
3590;BME280;1809;48.470;9.226;2024-02-21T00:31:04;73132.56;;;5.17;100.00
3590;BME280;1809;48.470;9.226;2024-02-21T00:33:30;73146.94;;;5.29;100.00
3590;BME280;1809;48.470;9.226;2024-02-21T00:35:55;71797.84;;;5.28;100.00
3590;BME280;1809;48.470;9.226;2024-02-21T00:38:21;71122.91;;;5.27;100.00
3590;BME280;1809;48.470;9.226;2024-02-21T00:40:46;71124.06;;;5.28;100.00
3590;BME280;1809;48.470;9.226;2024-02-21T00:43:11;70120.56;;;5.34;100.00
3590;BME280;1809;48.470;9.226;2024-02-21T00:45:36;69120.53;;;5.43;100.00
3590;BME280;1809;48.470;9.226;2024-02-21T00:48:02;67097.47;;;5.40;100.00
3590;BME280;1809;48.470;9.226;2024-02-21T00:50:28;66757.69;;;5.37;100.00
3590;BME280;1809;48.470;9.226;2024-02-21T00:52:53;66752.22;;;5.32;100.00
3590;BME280;1809;48.470;9.226;2024-02-21T00:55:18;67098.00;;;5.41;100.00
3590;BME280;1809;48.470;9.226;2024-02-21T00:57:44;67093.06;;;5.36;100.00
3590;BME280;1809;48.470;9.226;2024-02-21T01:00:09;67766.69;;;5.37;100.00
3590;BME280;1809;48.470;9.226;2024-02-21T01:02:35;67430.69;;;5.37;100.00
3590;BME280;1809;48.470;9.226;2024-02-21T01:05:01;68111.63;;;5.45;100.00
3590;BME280;1809;48.470;9.226;2024-02-21T01:07:27;68101.59;;;5.35;100.00
3590;BME280;1809;48.470;9.226;2024-02-21T01:09:52;69111.50;;;5.35;100.00
3590;BME280;1809;48.470;9.226;2024-02-21T01:12:18;69790.66;;;5.40;100.00
3590;BME280;1809;48.470;9.226;2024-02-21T01:14:44;69119.97;;;5.43;100.00
3590;BME280;1809;48.470;9.226;2024-02-21T01:17:11;68779.88;;;5.40;100.00
3590;BME280;1809;48.470;9.226;2024-02-21T01:19:36;68782.69;;;5.42;100.00
3590;BME280;1809;48.470;9.226;2024-02-21T01:22:01;68776.50;;;5.37;100.00
3590;BME280;1809;48.470;9.226;2024-02-21T01:24:27;69450.47;;;5.37;100.00
3590;BME280;1809;48.470;9.226;2024-02-21T01:26:52;69455.03;;;5.41;100.00
3590;BME280;1809;48.470;9.226;2024-02-21T01:29:17;69118.28;;;5.41;100.00
3590;BME280;1809;48.470;9.226;2024-02-21T01:31:43;69452.75;;;5.39;100.00
3590;BME280;1809;48.470;9.226;2024-02-21T01:34:08;69460.13;;;5.46;100.00
3590;BME280;1809;48.470;9.226;2024-02-21T01:36:33;68444.91;;;5.41;100.00
3590;BME280;1809;48.470;9.226;2024-02-21T01:38:59;68118.31;;;5.51;100.00
3590;BME280;1809;48.470;9.226;2024-02-21T01:41:24;66434.81;;;5.50;100.00
3590;BME280;1809;48.470;9.226;2024-02-21T01:43:49;65092.78;;;5.54;100.00
3590;BME280;1809;48.470;9.226;2024-02-21T01:46:15;63743.31;;;5.50;100.00
3590;BME280;1809;48.470;9.226;2024-02-21T01:48:40;62734.25;;;5.49;100.00
3590;BME280;1809;48.470;9.226;2024-02-21T01:51:06;61056.50;;;5.52;100.00
3590;BME280;1809;48.470;9.226;2024-02-21T01:53:37;59714.31;;;5.53;100.00
3590;BME280;1809;48.470;9.226;2024-02-21T01:56:03;58707.38;;;5.54;100.00
3590;BME280;1809;48.470;9.226;2024-02-21T01:58:30;58710.25;;;5.57;100.00
3590;BME280;1809;48.470;9.226;2024-02-21T02:00:56;58706.88;;;5.53;100.00
3590;BME280;1809;48.470;9.226;2024-02-21T02:03:22;58711.19;;;5.58;100.00
3590;BME280;1809;48.470;9.226;2024-02-21T02:05:49;58035.44;;;5.53;100.00
3590;BME280;1809;48.470;9.226;2024-02-21T02:08:19;58374.47;;;5.57;100.00
3590;BME280;1809;48.470;9.226;2024-02-21T02:10:47;56029.66;;;5.62;100.00
3590;BME280;1809;48.470;9.226;2024-02-21T02:13:12;51011.50;;;5.75;100.00
3590;BME280;1809;48.470;9.226;2024-02-21T02:15:42;44985.16;;;5.76;100.00
3590;BME280;1809;48.470;9.226;2024-02-21T02:18:08;40310.97;;;5.85;100.00
3590;BME280;1809;48.470;9.226;2024-02-21T02:20:34;34637.66;;;5.88;100.00
3590;BME280;1809;48.470;9.226;2024-02-21T02:23:06;31640.53;;;5.95;100.00
3590;BME280;1809;48.470;9.226;2024-02-21T02:25:32;25974.72;;;5.84;100.00
3590;BME280;1809;48.470;9.226;2024-02-21T02:27:58;24645.50;;;5.87;100.00
3590;BME280;1809;48.470;9.226;2024-02-21T02:30:24;21654.69;;;5.89;100.00
3590;BME280;1809;48.470;9.226;2024-02-21T02:32:49;17007.09;;;5.93;100.00
3590;BME280;1809;48.470;9.226;2024-02-21T02:35:14;14021.19;;;5.89;100.00
3590;BME280;1809;48.470;9.226;2024-02-21T02:37:40;14684.03;;;5.88;100.00
3590;BME280;1809;48.470;9.226;2024-02-21T02:40:06;14682.88;;;5.83;100.00
3590;BME280;1809;48.470;9.226;2024-02-21T02:42:32;13358.34;;;5.89;100.00
3590;BME280;1809;48.470;9.226;2024-02-21T02:44:57;12695.81;;;5.91;100.00
3590;BME280;1809;48.470;9.226;2024-02-21T02:47:23;10709.44;;;5.99;100.00
3590;BME280;1809;48.470;9.226;2024-02-21T02:49:48;457.41;;;6.05;100.00
3590;BME280;1809;48.470;9.226;2024-02-21T02:52:19;-9911.03;;;6.10;100.00
3590;BME280;1809;48.470;9.226;2024-02-21T02:54:45;-16047.97;;;6.13;100.00
3590;BME280;1809;48.470;9.226;2024-02-21T02:57:10;-16340.25;;;6.14;100.00
3590;BME280;1809;48.470;9.226;2024-02-21T02:59:35;-16338.84;;;6.09;100.00
3590;BME280;1809;48.470;9.226;2024-02-21T03:02:01;-16339.41;;;6.11;100.00
3590;BME280;1809;48.470;9.226;2024-02-21T03:04:26;-16341.94;;;6.20;100.00
3590;BME280;1809;48.470;9.226;2024-02-21T03:06:51;-16344.06;;;6.28;100.00
3590;BME280;1809;48.470;9.226;2024-02-21T03:09:17;-16344.47;;;6.29;100.00
3590;BME280;1809;48.470;9.226;2024-02-21T03:11:42;-16349.25;;;6.46;100.00
3590;BME280;1809;48.470;9.226;2024-02-21T03:14:09;-16349.41;;;6.47;100.00
3590;BME280;1809;48.470;9.226;2024-02-21T03:16:35;-16350.09;;;6.49;100.00
3590;BME280;1809;48.470;9.226;2024-02-21T03:19:00;-16349.25;;;6.46;100.00
3590;BME280;1809;48.470;9.226;2024-02-21T03:21:25;-16350.66;;;6.52;100.00
3590;BME280;1809;48.470;9.226;2024-02-21T03:23:50;-16349.13;;;6.46;100.00
3590;BME280;1809;48.470;9.226;2024-02-21T03:26:16;-16347.56;;;6.40;100.00
3590;BME280;1809;48.470;9.226;2024-02-21T03:28:42;-16346.72;;;6.37;100.00
3590;BME280;1809;48.470;9.226;2024-02-21T03:31:11;-16344.75;;;6.30;100.00
3590;BME280;1809;48.470;9.226;2024-02-21T03:33:37;-16344.63;;;6.30;100.00
3590;BME280;1809;48.470;9.226;2024-02-21T03:36:02;-16344.91;;;6.31;100.00
3590;BME280;1809;48.470;9.226;2024-02-21T03:38:28;-16344.19;;;6.28;100.00
3590;BME280;1809;48.470;9.226;2024-02-21T03:40:54;-16342.50;;;6.22;100.00
3590;BME280;1809;48.470;9.226;2024-02-21T03:43:19;-16347.28;;;6.39;100.00
3590;BME280;1809;48.470;9.226;2024-02-21T03:45:44;-16346.44;;;6.36;100.00
3590;BME280;1809;48.470;9.226;2024-02-21T03:48:10;-16344.47;;;6.29;100.00
3590;BME280;1809;48.470;9.226;2024-02-21T03:50:35;-16345.59;;;6.33;100.00
3590;BME280;1809;48.470;9.226;2024-02-21T03:53:00;-16347.28;;;6.39;100.00
3590;BME280;1809;48.470;9.226;2024-02-21T03:55:26;-16348.13;;;6.42;100.00
3590;BME280;1809;48.470;9.226;2024-02-21T03:57:51;-16349.25;;;6.46;100.00
3590;BME280;1809;48.470;9.226;2024-02-21T04:00:17;-16351.22;;;6.54;100.00
3590;BME280;1809;48.470;9.226;2024-02-21T04:02:42;-16350.66;;;6.52;100.00
3590;BME280;1809;48.470;9.226;2024-02-21T04:05:08;-16351.50;;;6.55;100.00
3590;BME280;1809;48.470;9.226;2024-02-21T04:07:37;-16347.72;;;6.41;100.00
3590;BME280;1809;48.470;9.226;2024-02-21T04:10:02;-16346.16;;;6.35;100.00
3590;BME280;1809;48.470;9.226;2024-02-21T04:12:28;-16347.00;;;6.38;100.00
3590;BME280;1809;48.470;9.226;2024-02-21T04:14:53;-16343.63;;;6.26;100.00
3590;BME280;1809;48.470;9.226;2024-02-21T04:17:18;-16342.78;;;6.23;100.00
3590;BME280;1809;48.470;9.226;2024-02-21T04:19:44;-16340.94;;;6.17;100.00
3590;BME280;1809;48.470;9.226;2024-02-21T04:22:09;-16340.53;;;6.15;100.00
3590;BME280;1809;48.470;9.226;2024-02-21T04:24:34;-16341.09;;;6.17;100.00
3590;BME280;1809;48.470;9.226;2024-02-21T04:26:59;-16341.09;;;6.17;100.00
3590;BME280;1809;48.470;9.226;2024-02-21T04:29:25;-16340.25;;;6.14;100.00
3590;BME280;1809;48.470;9.226;2024-02-21T04:31:51;-16339.13;;;6.10;100.00
3590;BME280;1809;48.470;9.226;2024-02-21T04:34:16;-16339.69;;;6.12;100.00
3590;BME280;1809;48.470;9.226;2024-02-21T04:36:41;-16339.25;;;6.11;100.00
3590;BME280;1809;48.470;9.226;2024-02-21T04:39:08;-16336.88;;;6.02;100.00
3590;BME280;1809;48.470;9.226;2024-02-21T04:41:34;-16334.91;;;5.95;100.00
3590;BME280;1809;48.470;9.226;2024-02-21T04:43:59;-16332.94;;;5.88;100.00
3590;BME280;1809;48.470;9.226;2024-02-21T04:46:24;-16330.97;;;5.81;100.00
3590;BME280;1809;48.470;9.226;2024-02-21T04:48:50;-16329.69;;;5.76;100.00
3590;BME280;1809;48.470;9.226;2024-02-21T04:51:15;-15797.19;;;5.69;100.00
3590;BME280;1809;48.470;9.226;2024-02-21T04:53:40;-13357.94;;;5.64;100.00
3590;BME280;1809;48.470;9.226;2024-02-21T04:56:06;-10443.88;;;5.70;100.00
3590;BME280;1809;48.470;9.226;2024-02-21T04:58:31;-12127.78;;;5.63;100.00
3590;BME280;1809;48.470;9.226;2024-02-21T05:00:56;-9067.97;;;5.66;100.00
3590;BME280;1809;48.470;9.226;2024-02-21T05:03:23;-8974.78;;;5.62;100.00
3590;BME280;1809;48.470;9.226;2024-02-21T05:05:48;-7390.94;;;5.62;100.00
3590;BME280;1809;48.470;9.226;2024-02-21T05:08:13;-7305.03;;;5.74;100.00
3590;BME280;1809;48.470;9.226;2024-02-21T05:10:39;-13590.78;;;5.72;100.00
3590;BME280;1809;48.470;9.226;2024-02-21T05:13:04;-15503.63;;;5.65;100.00
3590;BME280;1809;48.470;9.226;2024-02-21T05:15:29;-15558.19;;;5.58;100.00
3590;BME280;1809;48.470;9.226;2024-02-21T05:17:55;-13451.41;;;5.58;100.00
3590;BME280;1809;48.470;9.226;2024-02-21T05:20:20;-11655.19;;;5.51;100.00
3590;BME280;1809;48.470;9.226;2024-02-21T05:22:45;-10646.06;;;5.38;100.00
3590;BME280;1809;48.470;9.226;2024-02-21T05:25:11;-8229.78;;;5.31;100.00
3590;BME280;1809;48.470;9.226;2024-02-21T05:27:36;-3826.88;;;5.28;100.00
3590;BME280;1809;48.470;9.226;2024-02-21T05:30:04;-3827.56;;;5.37;100.00
3590;BME280;1809;48.470;9.226;2024-02-21T05:32:31;-4485.50;;;5.27;100.00
3590;BME280;1809;48.470;9.226;2024-02-21T05:34:57;-1849.75;;;5.23;100.00
3590;BME280;1809;48.470;9.226;2024-02-21T05:37:23;1447.38;;;5.11;100.00
3590;BME280;1809;48.470;9.226;2024-02-21T05:39:48;6397.44;;;5.00;100.00
3590;BME280;1809;48.470;9.226;2024-02-21T05:42:14;13338.38;;;4.91;100.00
3590;BME280;1809;48.470;9.226;2024-02-21T05:44:39;23281.03;;;4.93;100.00
3590;BME280;1809;48.470;9.226;2024-02-21T05:47:04;38581.72;;;4.89;100.00
3590;BME280;1809;48.470;9.226;2024-02-21T05:49:30;50602.38;;;4.84;100.00
3590;BME280;1809;48.470;9.226;2024-02-21T05:51:55;59635.50;;;4.71;100.00
3590;BME280;1809;48.470;9.226;2024-02-21T05:54:21;68378.88;;;4.82;100.00
3590;BME280;1809;48.470;9.226;2024-02-21T05:56:46;73430.44;;;4.84;100.00
3590;BME280;1809;48.470;9.226;2024-02-21T05:59:12;76438.19;;;4.64;100.00
3590;BME280;1809;48.470;9.226;2024-02-21T06:01:37;81141.72;;;4.51;100.00
3590;BME280;1809;48.470;9.226;2024-02-21T06:04:03;83819.94;;;4.34;100.00
3590;BME280;1809;48.470;9.226;2024-02-21T06:06:29;86842.34;;;4.22;100.00
3590;BME280;1809;48.470;9.226;2024-02-21T06:08:54;89523.75;;;4.07;100.00
3590;BME280;1809;48.470;9.226;2024-02-21T06:11:21;92221.06;;;4.02;100.00
3590;BME280;1809;48.470;9.226;2024-02-21T06:13:46;95946.69;;;4.04;100.00
3590;BME280;1809;48.470;9.226;2024-02-21T06:16:11;100022.16;;;4.10;100.00
3590;BME280;1809;48.470;9.226;2024-02-21T06:18:36;103081.53;;;4.14;100.00
3590;BME280;1809;48.470;9.226;2024-02-21T06:21:03;105461.28;;;4.16;100.00
3590;BME280;1809;48.470;9.226;2024-02-21T06:23:28;106819.03;;;4.16;100.00
3590;BME280;1809;48.470;9.226;2024-02-21T06:25:53;108180.84;;;4.17;100.00
3590;BME280;1809;48.470;9.226;2024-02-21T06:28:19;108861.53;;;4.18;100.00
3590;BME280;1809;48.470;9.226;2024-02-21T06:30:45;110235.22;;;4.25;100.00
3590;BME280;1809;48.470;9.226;2024-02-21T06:33:10;110922.84;;;4.29;100.00
3590;BME280;1809;48.470;9.226;2024-02-21T06:35:36;111621.75;;;4.40;100.00
3590;BME280;1809;48.470;9.226;2024-02-21T06:38:02;111965.81;;;4.42;100.00
3590;BME280;1809;48.470;9.226;2024-02-21T06:40:28;111970.47;;;4.44;100.00
3590;BME280;1809;48.470;9.226;2024-02-21T06:42:53;111634.72;;;4.47;100.00
3590;BME280;1809;48.470;9.226;2024-02-21T06:45:18;110964.16;;;4.52;100.00
3590;BME280;1809;48.470;9.226;2024-02-21T06:47:44;109924.25;;;4.42;100.00
3590;BME280;1809;48.470;9.226;2024-02-21T06:50:09;109929.69;;;4.45;100.00
3590;BME280;1809;48.470;9.226;2024-02-21T06:52:36;110272.63;;;4.46;100.00
3590;BME280;1809;48.470;9.226;2024-02-21T06:55:01;110278.09;;;4.49;100.00
3590;BME280;1809;48.470;9.226;2024-02-21T06:57:28;110281.75;;;4.51;100.00
3590;BME280;1809;48.470;9.226;2024-02-21T06:59:54;113093.72;;;4.99;100.00
3590;BME280;1809;48.470;9.226;2024-02-21T07:02:19;118315.09;;;5.54;100.00
3590;BME280;1809;48.470;9.226;2024-02-21T07:04:44;116955.75;;;5.57;100.00
3590;BME280;1809;48.470;9.226;2024-02-21T07:07:10;116354.66;;;6.00;100.00
3590;BME280;1809;48.470;9.226;2024-02-21T07:09:35;110868.41;;;5.87;100.00
3590;BME280;1809;48.470;9.226;2024-02-21T07:12:01;101294.91;;;5.65;100.00
3590;BME280;1809;48.470;9.226;2024-02-21T07:14:29;92438.59;;;5.47;100.00
3590;BME280;1809;48.470;9.226;2024-02-21T07:16:54;87693.88;;;5.46;100.00
3590;BME280;1809;48.470;9.226;2024-02-21T07:19:22;82949.00;;;5.39;100.00
3590;BME280;1809;48.470;9.226;2024-02-21T07:21:47;76872.88;;;5.42;100.00
3590;BME280;1809;48.470;9.226;2024-02-21T07:24:13;68111.63;;;5.45;100.00
3590;BME280;1809;48.470;9.226;2024-02-21T07:26:42;60718.06;;;5.49;100.00
3590;BME280;1809;48.470;9.226;2024-02-21T07:29:08;54341.75;;;5.50;100.00
3590;BME280;1809;48.470;9.226;2024-02-21T07:31:40;49323.13;;;5.59;100.00
3590;BME280;1809;48.470;9.226;2024-02-21T07:34:05;43302.44;;;5.61;100.00
3590;BME280;1809;48.470;9.226;2024-02-21T07:36:30;39300.56;;;5.72;100.00
3590;BME280;1809;48.470;9.226;2024-02-21T07:38:56;35636.16;;;5.84;100.00
3590;BME280;1809;48.470;9.226;2024-02-21T07:41:21;29305.22;;;5.88;100.00
3590;BME280;1809;48.470;9.226;2024-02-21T07:43:47;22988.97;;;6.03;100.00
3590;BME280;1809;48.470;9.226;2024-02-21T07:46:13;15353.16;;;6.13;100.00
3590;BME280;1809;48.470;9.226;2024-02-21T07:48:39;3431.78;;;6.29;100.00
3590;BME280;1809;48.470;9.226;2024-02-21T07:51:04;-4495.03;;;6.37;100.00
3590;BME280;1809;48.470;9.226;2024-02-21T07:53:32;-11693.09;;;6.48;100.00
3590;BME280;1809;48.470;9.226;2024-02-21T07:55:58;-16354.88;;;6.67;100.00
3590;BME280;1809;48.470;9.226;2024-02-21T07:58:24;-16354.03;;;6.64;100.00
3590;BME280;1809;48.470;9.226;2024-02-21T08:00:50;-16357.13;;;6.75;100.00
3590;BME280;1809;48.470;9.226;2024-02-21T08:03:15;-16359.53;;;6.83;100.00
3590;BME280;1809;48.470;9.226;2024-02-21T08:05:43;-16364.16;;;7.00;100.00
3590;BME280;1809;48.470;9.226;2024-02-21T08:08:08;-16366.97;;;7.10;100.00
3590;BME280;1809;48.470;9.226;2024-02-21T08:10:33;-16366.13;;;7.07;100.00
3590;BME280;1809;48.470;9.226;2024-02-21T08:12:59;-16364.31;;;7.00;100.00
3590;BME280;1809;48.470;9.226;2024-02-21T08:15:25;-16371.47;;;7.26;100.00
3590;BME280;1809;48.470;9.226;2024-02-21T08:17:53;-16374.84;;;7.38;100.00
3590;BME280;1809;48.470;9.226;2024-02-21T08:20:19;-16377.81;;;7.49;100.00
3590;BME280;1809;48.470;9.226;2024-02-21T08:22:44;-16384.56;;;7.73;100.00
3590;BME280;1809;48.470;9.226;2024-02-21T08:25:09;-16391.16;;;7.97;100.00
3590;BME280;1809;48.470;9.226;2024-02-21T08:27:34;-16391.16;;;7.97;100.00
3590;BME280;1809;48.470;9.226;2024-02-21T08:30:00;-16400.16;;;8.29;100.00
3590;BME280;1809;48.470;9.226;2024-02-21T08:32:25;-16405.38;;;8.48;100.00
3590;BME280;1809;48.470;9.226;2024-02-21T08:34:50;-16401.28;;;8.33;100.00
3590;BME280;1809;48.470;9.226;2024-02-21T08:37:16;-16409.59;;;8.63;100.00
3590;BME280;1809;48.470;9.226;2024-02-21T08:39:41;-16417.72;;;8.92;100.00
3590;BME280;1809;48.470;9.226;2024-02-21T08:42:06;-16420.53;;;9.02;100.00
3590;BME280;1809;48.470;9.226;2024-02-21T08:44:32;-16428.84;;;9.32;100.00
3590;BME280;1809;48.470;9.226;2024-02-21T08:46:57;-16434.88;;;9.54;100.00
3590;BME280;1809;48.470;9.226;2024-02-21T08:49:22;-16435.56;;;9.56;100.00
3590;BME280;1809;48.470;9.226;2024-02-21T08:51:48;-16435.44;;;9.56;100.00
3590;BME280;1809;48.470;9.226;2024-02-21T08:54:13;-16446.25;;;9.95;100.00
3590;BME280;1809;48.470;9.226;2024-02-21T08:56:38;-16453.28;;;10.20;100.00
3590;BME280;1809;48.470;9.226;2024-02-21T08:59:04;-16448.50;;;10.03;100.00
3590;BME280;1809;48.470;9.226;2024-02-21T09:01:29;-16450.75;;;10.11;100.00
3590;BME280;1809;48.470;9.226;2024-02-21T09:03:55;-16454.41;;;10.24;100.00
3590;BME280;1809;48.470;9.226;2024-02-21T09:06:21;-16449.91;;;10.08;100.00
3590;BME280;1809;48.470;9.226;2024-02-21T09:08:47;-16446.25;;;9.95;100.00
3590;BME280;1809;48.470;9.226;2024-02-21T09:11:12;-16440.06;;;9.72;100.00
3590;BME280;1809;48.470;9.226;2024-02-21T09:13:37;-16442.03;;;9.80;100.00
3590;BME280;1809;48.470;9.226;2024-02-21T09:16:03;-16437.53;;;9.63;100.00
3590;BME280;1809;48.470;9.226;2024-02-21T09:18:29;-16436.84;;;9.61;100.00
3590;BME280;1809;48.470;9.226;2024-02-21T09:20:55;-16432.91;;;9.47;100.00
3590;BME280;1809;48.470;9.226;2024-02-21T09:23:20;-16436.16;;;9.58;100.00
3590;BME280;1809;48.470;9.226;2024-02-21T09:25:45;-16429.41;;;9.34;100.00
3590;BME280;1809;48.470;9.226;2024-02-21T09:28:11;-16439.09;;;9.69;100.00
3590;BME280;1809;48.470;9.226;2024-02-21T09:30:38;-16431.50;;;9.42;100.00
3590;BME280;1809;48.470;9.226;2024-02-21T09:33:03;-16430.94;;;9.40;100.00
3590;BME280;1809;48.470;9.226;2024-02-21T09:35:30;-16420.69;;;9.03;100.00
3590;BME280;1809;48.470;9.226;2024-02-21T09:37:55;-16426.03;;;9.22;100.00
3590;BME280;1809;48.470;9.226;2024-02-21T09:40:21;-16425.47;;;9.20;100.00
3590;BME280;1809;48.470;9.226;2024-02-21T09:42:48;-16433.47;;;9.49;100.00
3590;BME280;1809;48.470;9.226;2024-02-21T09:45:24;-16429.53;;;9.35;100.00
3590;BME280;1809;48.470;9.226;2024-02-21T09:48:05;-16429.53;;;9.35;100.00
3590;BME280;1809;48.470;9.226;2024-02-21T09:50:38;-16434.88;;;9.54;100.00
3590;BME280;1809;48.470;9.226;2024-02-21T09:53:06;-16436.56;;;9.60;100.00
3590;BME280;1809;48.470;9.226;2024-02-21T09:55:33;-16447.94;;;10.01;100.00
3590;BME280;1809;48.470;9.226;2024-02-21T09:58:01;-16449.50;;;10.06;100.00
3590;BME280;1809;48.470;9.226;2024-02-21T10:00:26;-16455.38;;;10.27;100.00
3590;BME280;1809;48.470;9.226;2024-02-21T10:02:53;-16461.44;;;10.49;100.00
3590;BME280;1809;48.470;9.226;2024-02-21T10:05:18;-16463.97;;;10.58;100.00
3590;BME280;1809;48.470;9.226;2024-02-21T10:07:44;-16462.28;;;10.52;100.00
3590;BME280;1809;48.470;9.226;2024-02-21T10:10:09;-16469.72;;;10.79;100.00
3590;BME280;1809;48.470;9.226;2024-02-21T10:12:35;-16477.31;;;11.06;100.00
3590;BME280;1809;48.470;9.226;2024-02-21T10:15:04;-16475.47;;;11.00;100.00
3590;BME280;1809;48.470;9.226;2024-02-21T10:17:30;-16480.94;;;11.19;100.00
3590;BME280;1809;48.470;9.226;2024-02-21T10:20:06;-16480.53;;;11.18;100.00
3590;BME280;1809;48.470;9.226;2024-02-21T10:22:31;-16480.53;;;11.18;100.00
3590;BME280;1809;48.470;9.226;2024-02-21T10:25:07;-16490.34;;;11.53;100.00
3590;BME280;1809;48.470;9.226;2024-02-21T10:27:32;-16489.94;;;11.52;100.00
3590;BME280;1809;48.470;9.226;2024-02-21T10:29:58;-16490.63;;;11.54;100.00
3590;BME280;1809;48.470;9.226;2024-02-21T10:32:24;-16490.91;;;11.55;100.00
3590;BME280;1809;48.470;9.226;2024-02-21T10:35:01;-16490.91;;;11.55;100.00
3590;BME280;1809;48.470;9.226;2024-02-21T10:37:26;-16498.38;;;11.82;100.00
3590;BME280;1809;48.470;9.226;2024-02-21T10:39:53;-16504.53;;;12.04;100.00
3590;BME280;1809;48.470;9.226;2024-02-21T10:42:21;-16511.84;;;12.30;100.00
3590;BME280;1809;48.470;9.226;2024-02-21T10:44:50;-16511.13;;;12.28;100.00
3590;BME280;1809;48.470;9.226;2024-02-21T10:47:16;-16520.25;;;12.61;100.00
3590;BME280;1809;48.470;9.226;2024-02-21T10:49:49;-16529.09;;;12.92;100.00
3590;BME280;1809;48.470;9.226;2024-02-21T10:54:55;-16524.63;;;12.76;100.00
3590;BME280;1809;48.470;9.226;2024-02-21T10:57:22;-16534.72;;;13.13;100.00
3590;BME280;1809;48.470;9.226;2024-02-21T10:59:48;-16538.50;;;13.26;100.00
3590;BME280;1809;48.470;9.226;2024-02-21T11:02:15;-16536.13;;;13.18;100.00
3590;BME280;1809;48.470;9.226;2024-02-21T11:04:40;-16537.53;;;13.23;100.00
3590;BME280;1809;48.470;9.226;2024-02-21T11:07:07;-16550.56;;;13.70;100.00
3590;BME280;1809;48.470;9.226;2024-02-21T11:09:33;-16552.53;;;13.77;100.00
3590;BME280;1809;48.470;9.226;2024-02-21T11:12:05;-16546.06;;;13.54;100.00
3590;BME280;1809;48.470;9.226;2024-02-21T11:14:31;-16543.97;;;13.46;100.00
3590;BME280;1809;48.470;9.226;2024-02-21T11:17:15;-16550.28;;;13.69;100.00
3590;BME280;1809;48.470;9.226;2024-02-21T11:19:41;-16546.91;;;13.57;100.00
3590;BME280;1809;48.470;9.226;2024-02-21T11:22:14;-16554.63;;;13.84;100.00
3590;BME280;1809;48.470;9.226;2024-02-21T11:24:39;-16551.53;;;13.73;100.00
3590;BME280;1809;48.470;9.226;2024-02-21T11:27:15;-16559.81;;;14.03;100.00
3590;BME280;1809;48.470;9.226;2024-02-21T11:29:44;-16563.31;;;14.16;100.00
3590;BME280;1809;48.470;9.226;2024-02-21T11:32:19;-16559.69;;;14.02;100.00
3590;BME280;1809;48.470;9.226;2024-02-21T11:35:04;-16560.25;;;14.05;100.00
3590;BME280;1809;48.470;9.226;2024-02-21T11:37:33;-16561.66;;;14.10;100.00
3590;BME280;1809;48.470;9.226;2024-02-21T11:40:02;-16563.03;;;14.15;100.00
3590;BME280;1809;48.470;9.226;2024-02-21T11:42:29;-16558.00;;;13.96;100.00
3590;BME280;1809;48.470;9.226;2024-02-21T11:44:56;-16562.75;;;14.14;100.00
3590;BME280;1809;48.470;9.226;2024-02-21T11:47:22;-16567.09;;;14.29;100.00
3590;BME280;1809;48.470;9.226;2024-02-21T11:49:48;-16576.50;;;14.63;100.00
3590;BME280;1809;48.470;9.226;2024-02-21T11:52:24;-16581.41;;;14.81;100.00
3590;BME280;1809;48.470;9.226;2024-02-21T11:54:50;-16582.53;;;14.85;100.00
3590;BME280;1809;48.470;9.226;2024-02-21T11:57:17;-16586.59;;;14.99;100.00
3590;BME280;1809;48.470;9.226;2024-02-21T11:59:42;-16576.09;;;14.62;100.00
3590;BME280;1809;48.470;9.226;2024-02-21T12:02:10;-16583.25;;;14.87;100.00
3590;BME280;1809;48.470;9.226;2024-02-21T12:04:36;-16585.06;;;14.94;100.00
3590;BME280;1809;48.470;9.226;2024-02-21T12:07:01;-16587.59;;;15.03;100.00
3590;BME280;1809;48.470;9.226;2024-02-21T12:09:28;-16589.28;;;15.09;100.00
3590;BME280;1809;48.470;9.226;2024-02-21T12:12:04;-16587.16;;;15.01;100.00
3590;BME280;1809;48.470;9.226;2024-02-21T12:14:31;-16583.53;;;14.88;100.00
3590;BME280;1809;48.470;9.226;2024-02-21T12:16:57;-16583.53;;;14.88;100.00
3590;BME280;1809;48.470;9.226;2024-02-21T12:19:23;-16577.34;;;14.66;100.00
3590;BME280;1809;48.470;9.226;2024-02-21T12:21:49;-16578.19;;;14.69;100.00
3590;BME280;1809;48.470;9.226;2024-02-21T12:24:25;-16582.81;;;14.86;100.00
3590;BME280;1809;48.470;9.226;2024-02-21T12:26:54;-16583.81;;;14.89;100.00
3590;BME280;1809;48.470;9.226;2024-02-21T12:29:23;-16585.06;;;14.94;100.00
3590;BME280;1809;48.470;9.226;2024-02-21T12:31:52;-16588.97;;;15.08;100.00
3590;BME280;1809;48.470;9.226;2024-02-21T12:34:19;-16590.53;;;15.14;100.00
3590;BME280;1809;48.470;9.226;2024-02-21T12:36:45;-16590.38;;;15.13;100.00
3590;BME280;1809;48.470;9.226;2024-02-21T12:39:14;-16592.50;;;15.21;100.00
3590;BME280;1809;48.470;9.226;2024-02-21T12:41:39;-16592.34;;;15.20;100.00
3590;BME280;1809;48.470;9.226;2024-02-21T12:44:06;-16593.06;;;15.23;100.00
3590;BME280;1809;48.470;9.226;2024-02-21T12:46:33;-16596.69;;;15.36;100.00
3590;BME280;1809;48.470;9.226;2024-02-21T12:48:58;-16579.03;;;14.72;100.00
3590;BME280;1809;48.470;9.226;2024-02-21T12:51:24;-16582.69;;;14.85;100.00
3590;BME280;1809;48.470;9.226;2024-02-21T12:53:49;-16591.66;;;15.18;100.00
3590;BME280;1809;48.470;9.226;2024-02-21T12:56:15;-16589.41;;;15.10;100.00
3590;BME280;1809;48.470;9.226;2024-02-21T12:58:40;-16586.88;;;15.00;100.00
3590;BME280;1809;48.470;9.226;2024-02-21T13:01:06;-16586.47;;;14.99;100.00
3590;BME280;1809;48.470;9.226;2024-02-21T13:03:31;-16586.75;;;15.00;100.00
3590;BME280;1809;48.470;9.226;2024-02-21T13:05:57;-16589.28;;;15.09;100.00
3590;BME280;1809;48.470;9.226;2024-02-21T13:08:24;-16574.41;;;14.56;100.00
3590;BME280;1809;48.470;9.226;2024-02-21T13:10:50;-16575.09;;;14.58;100.00